Time;durP1;ratioP1;P1;durP2;ratioP2;P2;SDS_P1;SDS_P2;PMS_P1;PMS_P2;Temp;Humidity;BMP_temperature;BMP_pressure;BME280_temperature;BME280_humidity;BME280_pressure;Samples;Min_cycle;Max_cycle;Signal;HPM_P1;HPM_P2
2022/11/02 00:07:40;;;;;;;2.40;1.00;;;;;;;17.81;83.72;100972.25;20797081;28;20057;-83
2022/11/02 00:17:44;;;;;;;3.42;0.88;;;;;;;17.72;83.98;100935.38;20803192;28;20053;-83
2022/11/02 00:27:45;;;;;;;1.60;0.82;;;;;;;17.81;84.20;100933.69;20795813;28;20132;-83
2022/11/02 00:37:47;;;;;;;1.95;0.80;;;;;;;17.69;84.10;100914.09;20778319;28;20564;-83
2022/11/02 00:47:50;;;;;;;1.73;0.70;;;;;;;17.81;84.25;100921.09;20815888;28;20052;-83
2022/11/02 00:57:53;;;;;;;2.65;0.70;;;;;;;17.81;84.43;100922.91;20821400;28;20129;-83
2022/11/02 01:07:54;;;;;;;1.77;0.70;;;;;;;17.81;84.63;100933.69;20742055;28;20140;-83
2022/11/02 01:17:56;;;;;;;1.63;0.60;;;;;;;17.79;84.54;100941.91;20819078;28;20414;-83
2022/11/02 01:27:57;;;;;;;1.55;0.60;;;;;;;17.58;84.80;100887.25;20805072;28;20502;-83
2022/11/02 01:37:59;;;;;;;2.55;0.80;;;;;;;17.79;84.73;100917.69;20805015;28;20052;-83
2022/11/02 01:48:01;;;;;;;1.30;0.80;;;;;;;17.79;84.97;100915.00;20805276;28;20049;-83
2022/11/02 01:58:09;;;;;;;1.52;0.68;;;;;;;17.57;84.87;100891.78;20786183;28;20048;-83
2022/11/02 02:08:13;;;;;;;2.30;1.00;;;;;;;17.79;85.02;100920.38;20786046;28;20414;-83
2022/11/02 02:18:30;;;;;;;1.27;0.88;;;;;;;17.51;85.19;100877.03;20818945;28;20053;-83
2022/11/02 02:28:43;;;;;;;1.25;0.70;;;;;;;17.79;85.00;100900.66;20800556;28;20053;-83
2022/11/02 02:39:02;;;;;;;2.20;0.80;;;;;;;17.56;85.16;100854.22;20816156;28;20498;-84
2022/11/02 02:49:05;;;;;;;1.23;0.60;;;;;;;17.78;85.27;100890.88;20798849;28;20065;-83
2022/11/02 02:59:15;;;;;;;1.20;0.50;;;;;;;17.70;85.18;100872.72;20797260;28;20053;-83
2022/11/02 03:09:34;;;;;;;3.75;1.13;;;;;;;17.67;85.08;100895.38;20796587;28;20068;-83
2022/11/02 03:19:41;;;;;;;1.45;0.90;;;;;;;17.76;85.15;100888.34;20797276;28;20076;-83
2022/11/02 03:29:56;;;;;;;2.07;0.80;;;;;;;17.51;85.33;100868.09;20812334;28;20120;-83
2022/11/02 03:40:24;;;;;;;2.63;0.60;;;;;;;17.69;85.21;100890.72;20812245;28;20053;-83
2022/11/02 03:50:26;;;;;;;1.83;0.80;;;;;;;17.76;84.79;100909.88;20792624;28;20456;-83
2022/11/02 04:00:33;;;;;;;1.98;0.60;;;;;;;17.44;84.55;100854.31;20793751;28;20057;-83
2022/11/02 04:14:36;;;;;;;1.63;0.68;;;;;;;17.75;84.49;100924.34;20777611;28;20497;-83
2022/11/02 04:21:00;;;;;;;2.00;0.50;;;;;;;17.75;84.10;100935.09;20801281;28;20057;-83
2022/11/02 04:31:02;;;;;;;2.20;0.80;;;;;;;17.74;83.79;100960.31;20793542;28;20049;-83
2022/11/02 04:51:41;;;;;;;1.45;0.50;;;;;;;17.51;83.38;100948.84;20818026;28;20619;-83
2022/11/02 05:01:51;;;;;;;1.40;0.50;;;;;;;17.73;83.17;100985.53;20807458;28;20053;-83
2022/11/02 05:11:53;;;;;;;1.55;0.57;;;;;;;17.72;83.27;100978.44;20800288;28;20144;-83
2022/11/02 05:21:55;;;;;;;0.98;0.52;;;;;;;17.73;83.02;100988.22;20790846;28;20053;-82
2022/11/02 05:31:58;;;;;;;4.22;0.85;;;;;;;17.77;84.99;101008.53;20764615;28;20046;-82
2022/11/02 05:41:59;;;;;;;3.55;1.08;;;;;;;17.83;86.21;101012.50;20777969;28;20045;-82
2022/11/02 05:52:01;;;;;;;2.05;0.73;;;;;;;17.86;86.00;101027.56;20756280;28;20049;-84
2022/11/02 06:02:03;;;;;;;2.22;0.65;;;;;;;17.89;85.53;101027.28;20781758;28;20073;-83
2022/11/02 06:12:05;;;;;;;1.95;0.60;;;;;;;17.71;84.99;101014.44;20767780;28;20102;-84
2022/11/02 06:22:06;;;;;;;3.65;0.80;;;;;;;17.89;84.42;101052.38;20882490;28;20063;-84
2022/11/02 06:32:07;;;;;;;3.55;0.70;;;;;;;17.91;84.19;101065.72;20884549;28;20148;-84
2022/11/02 06:42:09;;;;;;;4.68;0.70;;;;;;;17.81;84.02;101074.59;20865431;28;20045;-84
2022/11/02 06:52:10;;;;;;;2.90;1.00;;;;;;;17.93;83.85;101101.44;20819558;28;20084;-84
2022/11/02 07:02:12;;;;;;;2.20;0.75;;;;;;;17.85;83.47;101103.94;20781848;28;20456;-84
2022/11/02 07:12:14;;;;;;;2.03;0.68;;;;;;;17.93;83.55;101141.84;20798444;28;20469;-84
2022/11/02 07:22:23;;;;;;;2.20;0.70;;;;;;;17.93;83.32;101169.66;20718126;28;20034;-84
2022/11/02 07:32:24;;;;;;;2.22;0.75;;;;;;;17.94;83.36;101165.97;20698161;28;20172;-84
2022/11/02 07:42:26;;;;;;;3.45;0.88;;;;;;;17.94;83.26;101202.81;20715208;28;20568;-84
2022/11/02 07:52:30;;;;;;;1.83;0.60;;;;;;;17.94;83.34;101210.91;20776078;28;20171;-84
2022/11/02 08:02:31;;;;;;;3.30;0.80;;;;;;;17.95;83.09;101236.84;20764782;28;20567;-84
2022/11/02 08:12:33;;;;;;;2.80;0.95;;;;;;;17.95;83.32;101258.41;20724064;28;20101;-84
2022/11/02 08:22:38;;;;;;;3.17;0.63;;;;;;;17.95;83.14;101270.03;20788980;28;20056;-83
2022/11/02 08:32:40;;;;;;;3.60;0.75;;;;;;;17.77;82.87;101261.66;20774513;28;20103;-84
2022/11/02 08:42:41;;;;;;;2.00;0.80;;;;;;;17.96;83.07;101304.09;20710890;28;20081;-84
2022/11/02 08:52:43;;;;;;;3.53;0.90;;;;;;;17.79;83.09;101293.81;20787157;28;20064;-84
2022/11/02 09:02:57;;;;;;;2.05;0.60;;;;;;;17.83;82.99;101303.38;20784726;28;20046;-83
2022/11/02 09:13:00;;;;;;;3.75;0.90;;;;;;;17.85;83.17;101327.50;20783410;28;20073;-83
2022/11/02 09:23:01;;;;;;;3.13;0.70;;;;;;;18.01;83.17;101371.06;20792467;28;20049;-82
2022/11/02 09:33:04;;;;;;;1.92;0.70;;;;;;;18.01;82.92;101381.00;20787087;28;20073;-82
2022/11/02 09:43:22;;;;;;;2.00;0.65;;;;;;;17.97;82.42;101396.50;20797284;28;20103;-83
2022/11/02 09:53:51;;;;;;;2.45;0.70;;;;;;;17.94;81.97;101402.16;20784709;28;20050;-82
2022/11/02 10:04:32;;;;;;;1.88;0.60;;;;;;;17.91;81.58;101424.81;20779761;28;20053;-82
2022/11/02 10:14:37;;;;;;;3.03;0.82;;;;;;;17.59;81.07;101408.53;20696649;28;20042;-82
2022/11/02 10:24:42;;;;;;;2.07;0.60;;;;;;;17.89;80.91;101474.41;20775511;28;20144;-82
2022/11/02 10:34:44;;;;;;;3.53;0.80;;;;;;;17.88;80.32;101502.31;20699851;28;20046;-81
2022/11/02 10:45:39;;;;;;;1.35;0.60;;;;;;;17.72;81.55;101455.06;20789665;28;20056;-82
2022/11/02 10:56:06;;;;;;;3.55;0.63;;;;;;;17.93;82.03;101492.91;20774851;28;20136;-82
2022/11/02 11:06:09;;;;;;;2.33;0.50;;;;;;;17.82;81.07;101482.97;20767911;28;20111;-82
2022/11/02 11:16:11;;;;;;;3.53;0.85;;;;;;;18.07;80.13;101515.22;20765555;28;20045;-82
2022/11/02 11:26:27;;;;;;;2.25;0.65;;;;;;;18.14;79.74;101526.38;20789621;28;20099;-83
2022/11/02 11:36:31;;;;;;;3.50;0.68;;;;;;;17.88;79.48;101470.00;20768262;28;20408;-80
2022/11/02 11:46:42;;;;;;;3.03;0.90;;;;;;;17.92;79.64;101479.53;20775464;28;20046;-83
2022/11/02 11:56:45;;;;;;;2.03;0.70;;;;;;;18.14;78.17;101547.94;20781181;28;20049;-83
2022/11/02 12:07:20;;;;;;;2.17;0.63;;;;;;;18.07;77.46;101536.75;20775073;28;20520;-83
2022/11/02 12:17:37;;;;;;;1.77;0.60;;;;;;;18.03;76.91;101538.00;20822263;28;20068;-82
2022/11/02 12:27:51;;;;;;;2.97;0.80;;;;;;;17.98;77.38;101531.09;20771099;28;20773;-81
2022/11/02 12:38:11;;;;;;;5.00;1.25;;;;;;;18.03;76.28;101540.69;20729698;28;20145;-81
2022/11/02 12:48:24;;;;;;;2.00;0.60;;;;;;;18.07;75.88;101537.59;20797108;28;20136;-81
2022/11/02 12:58:37;;;;;;;1.98;0.63;;;;;;;18.13;75.56;101540.81;20799317;28;20069;-82
2022/11/02 13:08:57;;;;;;;2.25;0.70;;;;;;;18.15;74.89;101534.31;20772425;28;20050;-82
2022/11/02 13:18:59;;;;;;;2.00;0.80;;;;;;;18.00;74.77;101512.09;20791193;28;20053;-81
2022/11/02 13:29:11;;;;;;;3.28;0.70;;;;;;;18.20;74.53;101539.34;20772403;28;20158;-80
2022/11/02 13:39:20;;;;;;;2.88;0.55;;;;;;;18.22;74.43;101529.31;20784151;28;20494;-81
2022/11/02 13:49:42;;;;;;;2.10;0.70;;;;;;;18.11;74.38;101517.53;20760445;28;20720;-81
2022/11/02 13:59:44;;;;;;;2.08;0.80;;;;;;;18.12;75.42;101518.38;20762124;28;20053;-85
2022/11/02 14:09:46;;;;;;;2.15;0.70;;;;;;;18.23;76.21;101539.09;20767734;28;20038;-82
2022/11/02 14:19:47;;;;;;;3.33;0.70;;;;;;;18.23;76.80;101536.41;20768175;28;20072;-84
2022/11/02 14:29:55;;;;;;;3.53;1.05;;;;;;;18.25;76.87;101539.84;20748641;28;20490;-82
2022/11/02 14:40:09;;;;;;;3.58;0.68;;;;;;;18.18;76.86;101538.63;20766492;28;20047;-82
2022/11/02 14:50:10;;;;;;;3.03;0.70;;;;;;;18.25;77.66;101523.66;20801527;28;20146;-83
2022/11/02 15:00:20;;;;;;;2.63;0.70;;;;;;;18.21;77.92;101530.28;20790389;28;20514;-83
2022/11/02 15:10:31;;;;;;;2.22;0.70;;;;;;;18.20;78.43;101528.56;20783585;28;20391;-83
2022/11/02 15:20:33;;;;;;;3.00;0.70;;;;;;;18.08;79.16;101520.47;20784520;28;20069;-83
2022/11/02 15:30:58;;;;;;;1.20;0.60;;;;;;;18.06;79.17;101492.78;20780710;28;20061;-83
2022/11/02 15:41:04;;;;;;;3.72;0.80;;;;;;;17.92;79.12;101472.34;20793308;28;20056;-83
2022/11/02 15:51:19;;;;;;;2.47;0.90;;;;;;;18.13;79.07;101508.47;20772831;28;20107;-83
2022/11/02 16:01:21;;;;;;;1.88;0.70;;;;;;;18.12;78.89;101507.63;20752912;28;20053;-83
2022/11/02 16:11:23;;;;;;;1.67;0.70;;;;;;;17.72;78.77;101441.59;20759636;28;20160;-83
2022/11/02 16:21:25;;;;;;;2.53;1.13;;;;;;;17.81;79.09;101457.00;20778866;28;20111;-82
2022/11/02 16:31:30;;;;;;;2.10;0.60;;;;;;;18.10;79.08;101504.19;20774342;28;20130;-82
2022/11/02 16:41:33;;;;;;;1.55;0.50;;;;;;;18.07;79.35;101494.50;20731526;28;20057;-83
2022/11/02 16:51:35;;;;;;;2.13;0.68;;;;;;;17.95;79.48;101466.69;20782199;28;20088;-83
2022/11/02 17:01:38;;;;;;;2.53;0.55;;;;;;;18.07;79.60;101483.72;20775311;28;20038;-82
2022/11/02 17:11:41;;;;;;;2.13;0.60;;;;;;;17.59;79.73;101411.22;20772398;28;20600;-83
2022/11/02 17:21:43;;;;;;;1.88;0.90;;;;;;;17.95;79.64;101457.75;20776206;28;20057;-84
2022/11/02 17:31:44;;;;;;;1.02;0.50;;;;;;;18.06;79.52;101471.22;20792401;28;20064;-84
2022/11/02 17:52:15;;;;;;;2.58;1.00;;;;;;;17.77;79.91;101444.78;20778699;28;20138;-84
2022/11/02 18:02:16;;;;;;;1.25;0.70;;;;;;;18.02;80.09;101455.44;20770816;28;20112;-85
2022/11/02 18:12:18;;;;;;;2.20;0.60;;;;;;;18.05;80.22;101464.13;20765258;28;20406;-84
2022/11/02 18:22:19;;;;;;;2.92;0.88;;;;;;;18.05;80.17;101453.34;20767385;28;20490;-83
2022/11/02 18:32:22;;;;;;;1.63;0.70;;;;;;;18.05;80.42;101431.78;20780644;28;20521;-83
2022/11/02 18:42:24;;;;;;;3.35;0.80;;;;;;;18.07;79.73;101442.47;20776212;28;20071;-83
2022/11/02 18:52:26;;;;;;;2.30;0.80;;;;;;;18.09;79.49;101427.03;20775766;28;20149;-83
2022/11/02 19:02:33;;;;;;;3.22;0.65;;;;;;;18.10;79.46;101399.09;20762833;28;20563;-82
2022/11/02 19:12:34;;;;;;;1.30;0.55;;;;;;;18.12;79.40;101389.06;20760665;28;20592;-82
2022/11/02 19:22:36;;;;;;;1.83;0.82;;;;;;;18.02;79.14;101351.22;20772574;28;20045;-85
2022/11/02 19:32:37;;;;;;;3.70;0.98;;;;;;;18.14;78.42;101349.34;20764888;28;20053;-85
2022/11/02 19:42:40;;;;;;;2.88;0.90;;;;;;;18.15;78.34;101344.84;20758291;28;20136;-85
2022/11/02 19:52:41;;;;;;;3.03;1.10;;;;;;;18.16;77.88;101327.69;20747888;28;20157;-86
2022/11/02 20:02:43;;;;;;;3.28;0.80;;;;;;;18.16;78.14;101325.00;20769453;28;20127;-84
2022/11/02 20:12:44;;;;;;;4.57;1.20;;;;;;;18.18;77.96;101314.94;20746018;28;20050;-82
2022/11/02 20:22:47;;;;;;;3.30;0.80;;;;;;;18.18;77.98;101312.25;20742714;28;20055;-82
2022/11/02 20:32:48;;;;;;;3.30;0.80;;;;;;;18.00;78.33;101264.25;20745762;28;20422;-83
2022/11/02 20:42:50;;;;;;;1.10;0.55;;;;;;;18.18;78.25;101282.59;20748215;28;20122;-82
2022/11/02 20:52:54;;;;;;;4.60;1.10;;;;;;;18.18;78.38;101267.28;20737240;28;20057;-82
2022/11/02 21:02:55;;;;;;;5.22;0.98;;;;;;;18.19;78.51;101266.28;20769032;28;20064;-82
2022/11/02 21:23:17;;;;;;;2.92;0.90;;;;;;;18.19;78.24;101251.97;20749908;28;20118;-83
2022/11/02 21:33:19;;;;;;;4.10;1.10;;;;;;;17.95;77.20;101207.22;20806043;28;20480;-82
2022/11/02 21:43:20;;;;;;;4.03;1.23;;;;;;;17.93;76.13;101211.88;20806798;28;20530;-82
2022/11/02 21:53:22;;;;;;;3.78;0.90;;;;;;;17.88;75.51;101201.47;20806870;28;20053;-82
2022/11/02 22:03:23;;;;;;;3.20;0.88;;;;;;;17.96;74.91;101206.22;20803443;28;20046;-82
2022/11/02 22:13:31;;;;;;;2.33;0.90;;;;;;;17.89;74.80;101175.41;20804084;28;20049;-82
2022/11/02 22:23:32;;;;;;;1.92;0.80;;;;;;;17.98;74.55;101188.09;20800565;28;20068;-82
2022/11/02 22:33:34;;;;;;;2.75;0.90;;;;;;;17.96;74.70;101179.31;20802236;28;20076;-82
2022/11/02 22:43:36;;;;;;;3.53;0.80;;;;;;;17.93;74.39;101169.66;20801903;28;20057;-82
2022/11/02 22:53:37;;;;;;;2.33;0.90;;;;;;;17.83;74.11;101131.00;20800199;28;20049;-82
2022/11/02 23:03:39;;;;;;;3.25;1.10;;;;;;;17.93;74.27;101155.31;20800470;28;20073;-82
2022/11/02 23:13:42;;;;;;;3.85;0.90;;;;;;;17.92;73.42;101118.59;20781846;28;20053;-82
2022/11/02 23:34:03;;;;;;;2.30;0.82;;;;;;;17.91;73.85;101100.72;20798231;28;20049;-82
2022/11/02 23:44:11;;;;;;;3.50;1.00;;;;;;;17.89;73.54;101092.75;20797552;28;20045;-82
